sensor_id;sensor_type;location;lat;lon;timestamp;temperature;humidity
16827;DHT22;8530;49.540;8.576;2023-11-22T00:02:13;6.60;96.90
16827;DHT22;8530;49.540;8.576;2023-11-22T00:04:40;6.40;96.90
16827;DHT22;8530;49.540;8.576;2023-11-22T00:07:07;6.30;97.10
16827;DHT22;8530;49.540;8.576;2023-11-22T00:09:33;6.20;97.20
16827;DHT22;8530;49.540;8.576;2023-11-22T00:12:00;6.10;97.30
16827;DHT22;8530;49.540;8.576;2023-11-22T00:14:28;6.00;97.40
16827;DHT22;8530;49.540;8.576;2023-11-22T00:16:54;6.00;97.60
16827;DHT22;8530;49.540;8.576;2023-11-22T00:19:22;5.90;97.60
16827;DHT22;8530;49.540;8.576;2023-11-22T00:21:49;5.90;97.70
16827;DHT22;8530;49.540;8.576;2023-11-22T00:24:16;5.80;97.70
16827;DHT22;8530;49.540;8.576;2023-11-22T00:26:44;5.70;97.80
16827;DHT22;8530;49.540;8.576;2023-11-22T00:29:11;5.60;97.80
16827;DHT22;8530;49.540;8.576;2023-11-22T00:31:37;5.60;97.80
16827;DHT22;8530;49.540;8.576;2023-11-22T00:34:04;5.40;97.80
16827;DHT22;8530;49.540;8.576;2023-11-22T00:36:33;5.40;98.00
16827;DHT22;8530;49.540;8.576;2023-11-22T00:39:00;5.30;98.00
16827;DHT22;8530;49.540;8.576;2023-11-22T00:41:30;5.20;98.10
16827;DHT22;8530;49.540;8.576;2023-11-22T00:43:57;5.20;98.20
16827;DHT22;8530;49.540;8.576;2023-11-22T00:46:23;5.10;98.30
16827;DHT22;8530;49.540;8.576;2023-11-22T00:48:50;5.00;98.30
16827;DHT22;8530;49.540;8.576;2023-11-22T00:51:17;5.00;98.50
16827;DHT22;8530;49.540;8.576;2023-11-22T00:53:46;5.00;98.60
16827;DHT22;8530;49.540;8.576;2023-11-22T00:56:13;5.00;98.60
16827;DHT22;8530;49.540;8.576;2023-11-22T00:58:39;5.00;98.70
16827;DHT22;8530;49.540;8.576;2023-11-22T01:01:06;5.10;98.80
16827;DHT22;8530;49.540;8.576;2023-11-22T01:03:33;5.10;98.80
16827;DHT22;8530;49.540;8.576;2023-11-22T01:06:00;5.10;98.80
16827;DHT22;8530;49.540;8.576;2023-11-22T01:08:27;5.20;98.80
16827;DHT22;8530;49.540;8.576;2023-11-22T01:10:56;5.20;98.80
16827;DHT22;8530;49.540;8.576;2023-11-22T01:13:23;5.20;98.80
16827;DHT22;8530;49.540;8.576;2023-11-22T01:15:50;5.10;98.80
16827;DHT22;8530;49.540;8.576;2023-11-22T01:18:17;5.10;98.80
16827;DHT22;8530;49.540;8.576;2023-11-22T01:20:44;5.10;98.90
16827;DHT22;8530;49.540;8.576;2023-11-22T01:23:11;5.00;98.80
16827;DHT22;8530;49.540;8.576;2023-11-22T01:25:38;5.00;98.80
16827;DHT22;8530;49.540;8.576;2023-11-22T01:28:06;4.90;98.80
16827;DHT22;8530;49.540;8.576;2023-11-22T01:30:33;4.80;98.80
16827;DHT22;8530;49.540;8.576;2023-11-22T01:33:00;4.80;98.90
16827;DHT22;8530;49.540;8.576;2023-11-22T01:35:27;4.70;98.90
16827;DHT22;8530;49.540;8.576;2023-11-22T01:37:54;4.60;98.90
16827;DHT22;8530;49.540;8.576;2023-11-22T01:40:21;4.60;99.00
16827;DHT22;8530;49.540;8.576;2023-11-22T01:42:49;4.60;99.10
16827;DHT22;8530;49.540;8.576;2023-11-22T01:45:17;4.50;99.00
16827;DHT22;8530;49.540;8.576;2023-11-22T01:47:44;4.50;99.10
16827;DHT22;8530;49.540;8.576;2023-11-22T01:50:11;4.50;99.10
16827;DHT22;8530;49.540;8.576;2023-11-22T01:52:41;4.40;99.10
16827;DHT22;8530;49.540;8.576;2023-11-22T01:55:08;4.40;99.10
16827;DHT22;8530;49.540;8.576;2023-11-22T01:57:36;4.40;99.20
16827;DHT22;8530;49.540;8.576;2023-11-22T02:00:04;4.30;99.10
16827;DHT22;8530;49.540;8.576;2023-11-22T02:02:34;4.30;99.20
16827;DHT22;8530;49.540;8.576;2023-11-22T02:05:01;4.30;99.20
16827;DHT22;8530;49.540;8.576;2023-11-22T02:07:31;4.20;99.40
16827;DHT22;8530;49.540;8.576;2023-11-22T02:09:58;4.20;99.40
16827;DHT22;8530;49.540;8.576;2023-11-22T02:12:25;4.10;99.20
16827;DHT22;8530;49.540;8.576;2023-11-22T02:14:51;4.10;99.20
16827;DHT22;8530;49.540;8.576;2023-11-22T02:17:18;4.10;99.20
16827;DHT22;8530;49.540;8.576;2023-11-22T02:19:47;4.00;99.20
16827;DHT22;8530;49.540;8.576;2023-11-22T02:22:14;4.00;99.20
16827;DHT22;8530;49.540;8.576;2023-11-22T02:24:43;3.90;99.20
16827;DHT22;8530;49.540;8.576;2023-11-22T02:27:09;3.90;99.20
16827;DHT22;8530;49.540;8.576;2023-11-22T02:29:36;3.80;99.20
16827;DHT22;8530;49.540;8.576;2023-11-22T02:32:04;3.80;99.20
16827;DHT22;8530;49.540;8.576;2023-11-22T02:34:30;3.80;99.10
16827;DHT22;8530;49.540;8.576;2023-11-22T02:36:57;3.80;99.10
16827;DHT22;8530;49.540;8.576;2023-11-22T02:39:28;3.80;99.00
16827;DHT22;8530;49.540;8.576;2023-11-22T02:42:01;3.80;99.00
16827;DHT22;8530;49.540;8.576;2023-11-22T02:44:29;3.80;99.00
16827;DHT22;8530;49.540;8.576;2023-11-22T02:46:56;3.80;99.00
16827;DHT22;8530;49.540;8.576;2023-11-22T02:49:23;3.80;98.90
16827;DHT22;8530;49.540;8.576;2023-11-22T02:51:49;3.80;98.90
16827;DHT22;8530;49.540;8.576;2023-11-22T02:54:16;3.80;98.80
16827;DHT22;8530;49.540;8.576;2023-11-22T02:56:43;3.70;98.70
16827;DHT22;8530;49.540;8.576;2023-11-22T02:59:11;3.70;98.70
16827;DHT22;8530;49.540;8.576;2023-11-22T03:01:39;3.60;98.60
16827;DHT22;8530;49.540;8.576;2023-11-22T03:04:08;3.60;98.60
16827;DHT22;8530;49.540;8.576;2023-11-22T03:06:35;3.50;98.60
16827;DHT22;8530;49.540;8.576;2023-11-22T03:09:02;3.50;98.60
16827;DHT22;8530;49.540;8.576;2023-11-22T03:11:29;3.50;98.60
16827;DHT22;8530;49.540;8.576;2023-11-22T03:13:57;3.40;98.50
16827;DHT22;8530;49.540;8.576;2023-11-22T03:16:25;3.40;98.60
16827;DHT22;8530;49.540;8.576;2023-11-22T03:18:53;3.30;98.50
16827;DHT22;8530;49.540;8.576;2023-11-22T03:21:20;3.30;98.60
16827;DHT22;8530;49.540;8.576;2023-11-22T03:23:47;3.20;98.60
16827;DHT22;8530;49.540;8.576;2023-11-22T03:26:15;3.10;98.50
16827;DHT22;8530;49.540;8.576;2023-11-22T03:28:42;3.10;98.50
16827;DHT22;8530;49.540;8.576;2023-11-22T03:31:09;3.10;98.50
16827;DHT22;8530;49.540;8.576;2023-11-22T03:33:37;3.00;98.50
16827;DHT22;8530;49.540;8.576;2023-11-22T03:36:04;3.00;98.60
16827;DHT22;8530;49.540;8.576;2023-11-22T03:38:31;2.90;98.60
16827;DHT22;8530;49.540;8.576;2023-11-22T03:40:58;2.90;98.60
16827;DHT22;8530;49.540;8.576;2023-11-22T03:43:25;2.90;98.60
16827;DHT22;8530;49.540;8.576;2023-11-22T03:45:51;2.80;98.60
16827;DHT22;8530;49.540;8.576;2023-11-22T03:48:18;2.80;98.60
16827;DHT22;8530;49.540;8.576;2023-11-22T03:50:49;2.80;98.70
16827;DHT22;8530;49.540;8.576;2023-11-22T03:53:16;2.80;98.70
16827;DHT22;8530;49.540;8.576;2023-11-22T03:55:42;2.80;98.70
16827;DHT22;8530;49.540;8.576;2023-11-22T03:58:09;2.70;98.70
16827;DHT22;8530;49.540;8.576;2023-11-22T04:00:36;2.80;98.80
16827;DHT22;8530;49.540;8.576;2023-11-22T04:03:02;2.70;98.70
16827;DHT22;8530;49.540;8.576;2023-11-22T04:05:29;2.70;98.70
16827;DHT22;8530;49.540;8.576;2023-11-22T04:07:57;2.70;98.70
16827;DHT22;8530;49.540;8.576;2023-11-22T04:10:24;2.70;98.80
16827;DHT22;8530;49.540;8.576;2023-11-22T04:12:51;2.70;98.80
16827;DHT22;8530;49.540;8.576;2023-11-22T04:15:18;2.70;98.80
16827;DHT22;8530;49.540;8.576;2023-11-22T04:17:45;2.60;98.80
16827;DHT22;8530;49.540;8.576;2023-11-22T04:20:12;2.60;98.80
16827;DHT22;8530;49.540;8.576;2023-11-22T04:22:40;2.60;98.80
16827;DHT22;8530;49.540;8.576;2023-11-22T04:25:08;2.60;98.80
16827;DHT22;8530;49.540;8.576;2023-11-22T04:27:38;2.50;98.80
16827;DHT22;8530;49.540;8.576;2023-11-22T04:30:05;2.50;98.80
16827;DHT22;8530;49.540;8.576;2023-11-22T04:32:34;2.50;98.80
16827;DHT22;8530;49.540;8.576;2023-11-22T04:35:01;2.50;98.80
16827;DHT22;8530;49.540;8.576;2023-11-22T04:37:29;2.50;98.80
16827;DHT22;8530;49.540;8.576;2023-11-22T04:39:57;2.50;98.90
16827;DHT22;8530;49.540;8.576;2023-11-22T04:42:26;2.50;98.90
16827;DHT22;8530;49.540;8.576;2023-11-22T04:44:54;2.50;98.90
16827;DHT22;8530;49.540;8.576;2023-11-22T04:47:21;2.40;98.90
16827;DHT22;8530;49.540;8.576;2023-11-22T04:49:48;2.40;98.90
16827;DHT22;8530;49.540;8.576;2023-11-22T04:52:15;2.30;98.90
16827;DHT22;8530;49.540;8.576;2023-11-22T04:54:42;2.30;99.00
16827;DHT22;8530;49.540;8.576;2023-11-22T04:57:09;2.20;99.00
16827;DHT22;8530;49.540;8.576;2023-11-22T04:59:37;2.20;99.00
16827;DHT22;8530;49.540;8.576;2023-11-22T05:02:04;2.10;99.00
16827;DHT22;8530;49.540;8.576;2023-11-22T05:04:32;2.10;99.00
16827;DHT22;8530;49.540;8.576;2023-11-22T05:06:58;2.10;99.10
16827;DHT22;8530;49.540;8.576;2023-11-22T05:09:25;2.00;99.10
16827;DHT22;8530;49.540;8.576;2023-11-22T05:11:53;2.00;99.10
16827;DHT22;8530;49.540;8.576;2023-11-22T05:14:20;2.00;99.10
16827;DHT22;8530;49.540;8.576;2023-11-22T05:16:48;2.00;99.10
16827;DHT22;8530;49.540;8.576;2023-11-22T05:19:14;1.90;99.10
16827;DHT22;8530;49.540;8.576;2023-11-22T05:21:41;1.90;99.20
16827;DHT22;8530;49.540;8.576;2023-11-22T05:24:08;1.90;99.20
16827;DHT22;8530;49.540;8.576;2023-11-22T05:26:35;1.90;99.20
16827;DHT22;8530;49.540;8.576;2023-11-22T05:29:02;1.90;99.20
16827;DHT22;8530;49.540;8.576;2023-11-22T05:31:31;1.90;99.20
16827;DHT22;8530;49.540;8.576;2023-11-22T05:33:59;1.90;99.20
16827;DHT22;8530;49.540;8.576;2023-11-22T05:36:26;1.90;99.20
16827;DHT22;8530;49.540;8.576;2023-11-22T05:38:52;1.90;99.20
16827;DHT22;8530;49.540;8.576;2023-11-22T05:41:19;1.90;99.20
16827;DHT22;8530;49.540;8.576;2023-11-22T05:43:46;1.90;99.20
16827;DHT22;8530;49.540;8.576;2023-11-22T05:46:13;1.90;99.20
16827;DHT22;8530;49.540;8.576;2023-11-22T05:48:42;1.90;99.20
16827;DHT22;8530;49.540;8.576;2023-11-22T05:51:10;1.90;99.20
16827;DHT22;8530;49.540;8.576;2023-11-22T05:53:37;1.90;99.30
16827;DHT22;8530;49.540;8.576;2023-11-22T05:56:04;1.90;99.20
16827;DHT22;8530;49.540;8.576;2023-11-22T05:58:31;1.90;99.20
16827;DHT22;8530;49.540;8.576;2023-11-22T06:00:57;2.00;99.20
16827;DHT22;8530;49.540;8.576;2023-11-22T06:03:25;2.00;99.20
16827;DHT22;8530;49.540;8.576;2023-11-22T06:05:52;2.00;99.20
16827;DHT22;8530;49.540;8.576;2023-11-22T06:08:20;2.00;99.10
16827;DHT22;8530;49.540;8.576;2023-11-22T06:10:46;2.00;99.10
16827;DHT22;8530;49.540;8.576;2023-11-22T06:13:26;2.00;99.10
16827;DHT22;8530;49.540;8.576;2023-11-22T06:15:53;2.00;99.00
16827;DHT22;8530;49.540;8.576;2023-11-22T06:18:19;2.00;99.00
16827;DHT22;8530;49.540;8.576;2023-11-22T06:20:46;1.90;98.90
16827;DHT22;8530;49.540;8.576;2023-11-22T06:23:13;1.90;98.90
16827;DHT22;8530;49.540;8.576;2023-11-22T06:25:41;1.80;98.90
16827;DHT22;8530;49.540;8.576;2023-11-22T06:28:09;1.80;98.90
16827;DHT22;8530;49.540;8.576;2023-11-22T06:30:36;1.70;98.90
16827;DHT22;8530;49.540;8.576;2023-11-22T06:33:02;1.70;98.90
16827;DHT22;8530;49.540;8.576;2023-11-22T06:35:29;1.60;98.90
16827;DHT22;8530;49.540;8.576;2023-11-22T06:37:56;1.60;98.90
16827;DHT22;8530;49.540;8.576;2023-11-22T06:40:23;1.60;98.90
16827;DHT22;8530;49.540;8.576;2023-11-22T06:42:51;1.60;98.90
16827;DHT22;8530;49.540;8.576;2023-11-22T06:45:18;1.50;98.80
16827;DHT22;8530;49.540;8.576;2023-11-22T06:47:45;1.50;98.80
16827;DHT22;8530;49.540;8.576;2023-11-22T06:50:12;1.50;98.90
16827;DHT22;8530;49.540;8.576;2023-11-22T06:52:40;1.50;99.00
16827;DHT22;8530;49.540;8.576;2023-11-22T06:55:07;1.50;99.10
16827;DHT22;8530;49.540;8.576;2023-11-22T06:57:34;1.60;99.20
16827;DHT22;8530;49.540;8.576;2023-11-22T07:00:03;1.60;99.20
16827;DHT22;8530;49.540;8.576;2023-11-22T07:02:31;1.60;99.20
16827;DHT22;8530;49.540;8.576;2023-11-22T07:04:57;1.60;99.10
16827;DHT22;8530;49.540;8.576;2023-11-22T07:07:25;1.60;99.10
16827;DHT22;8530;49.540;8.576;2023-11-22T07:09:52;1.60;99.10
16827;DHT22;8530;49.540;8.576;2023-11-22T07:12:19;1.60;99.00
16827;DHT22;8530;49.540;8.576;2023-11-22T07:14:45;1.70;99.00
16827;DHT22;8530;49.540;8.576;2023-11-22T07:17:16;1.70;99.00
16827;DHT22;8530;49.540;8.576;2023-11-22T07:19:43;1.70;98.90
16827;DHT22;8530;49.540;8.576;2023-11-22T07:22:12;1.70;98.80
16827;DHT22;8530;49.540;8.576;2023-11-22T07:24:42;1.70;98.70
16827;DHT22;8530;49.540;8.576;2023-11-22T07:27:09;1.80;98.80
16827;DHT22;8530;49.540;8.576;2023-11-22T07:29:37;1.80;98.70
16827;DHT22;8530;49.540;8.576;2023-11-22T07:32:04;1.80;98.60
16827;DHT22;8530;49.540;8.576;2023-11-22T07:34:32;1.90;98.50
16827;DHT22;8530;49.540;8.576;2023-11-22T07:37:00;1.90;98.40
16827;DHT22;8530;49.540;8.576;2023-11-22T07:39:26;1.90;98.30
16827;DHT22;8530;49.540;8.576;2023-11-22T07:41:53;2.00;98.40
16827;DHT22;8530;49.540;8.576;2023-11-22T07:44:20;2.20;98.70
16827;DHT22;8530;49.540;8.576;2023-11-22T07:46:47;2.50;98.70
16827;DHT22;8530;49.540;8.576;2023-11-22T07:49:14;2.60;98.50
16827;DHT22;8530;49.540;8.576;2023-11-22T07:51:44;2.70;98.40
16827;DHT22;8530;49.540;8.576;2023-11-22T07:54:11;2.70;98.20
16827;DHT22;8530;49.540;8.576;2023-11-22T07:56:40;2.80;98.10
16827;DHT22;8530;49.540;8.576;2023-11-22T07:59:08;2.80;98.00
16827;DHT22;8530;49.540;8.576;2023-11-22T08:01:36;2.90;97.90
16827;DHT22;8530;49.540;8.576;2023-11-22T08:04:03;3.10;98.00
16827;DHT22;8530;49.540;8.576;2023-11-22T08:06:31;3.70;99.50
16827;DHT22;8530;49.540;8.576;2023-11-22T08:08:59;4.20;99.30
16827;DHT22;8530;49.540;8.576;2023-11-22T08:11:27;4.60;98.80
16827;DHT22;8530;49.540;8.576;2023-11-22T08:13:54;4.70;98.00
16827;DHT22;8530;49.540;8.576;2023-11-22T08:16:23;4.60;97.30
16827;DHT22;8530;49.540;8.576;2023-11-22T08:18:50;4.50;96.90
16827;DHT22;8530;49.540;8.576;2023-11-22T08:21:16;4.40;96.60
16827;DHT22;8530;49.540;8.576;2023-11-22T08:23:44;4.30;96.30
16827;DHT22;8530;49.540;8.576;2023-11-22T08:26:13;4.30;96.10
16827;DHT22;8530;49.540;8.576;2023-11-22T08:28:40;4.30;95.90
16827;DHT22;8530;49.540;8.576;2023-11-22T08:31:07;4.50;96.10
16827;DHT22;8530;49.540;8.576;2023-11-22T08:33:35;5.20;99.00
16827;DHT22;8530;49.540;8.576;2023-11-22T08:36:03;6.20;99.90
16827;DHT22;8530;49.540;8.576;2023-11-22T08:38:30;7.10;99.90
16827;DHT22;8530;49.540;8.576;2023-11-22T08:41:00;7.70;99.90
16827;DHT22;8530;49.540;8.576;2023-11-22T08:43:28;7.90;98.80
16827;DHT22;8530;49.540;8.576;2023-11-22T08:45:57;7.80;96.40
16827;DHT22;8530;49.540;8.576;2023-11-22T08:48:24;7.50;95.30
16827;DHT22;8530;49.540;8.576;2023-11-22T08:50:51;7.10;93.90
16827;DHT22;8530;49.540;8.576;2023-11-22T08:53:19;6.60;93.30
16827;DHT22;8530;49.540;8.576;2023-11-22T08:55:46;6.40;92.90
16827;DHT22;8530;49.540;8.576;2023-11-22T08:58:13;6.10;92.30
16827;DHT22;8530;49.540;8.576;2023-11-22T09:00:42;5.90;91.80
16827;DHT22;8530;49.540;8.576;2023-11-22T09:03:10;5.60;91.30
16827;DHT22;8530;49.540;8.576;2023-11-22T09:05:38;5.50;91.20
16827;DHT22;8530;49.540;8.576;2023-11-22T09:08:05;5.50;91.20
16827;DHT22;8530;49.540;8.576;2023-11-22T09:10:32;5.60;91.00
16827;DHT22;8530;49.540;8.576;2023-11-22T09:12:59;5.60;90.80
16827;DHT22;8530;49.540;8.576;2023-11-22T09:15:25;5.50;90.40
16827;DHT22;8530;49.540;8.576;2023-11-22T09:17:56;5.40;90.10
16827;DHT22;8530;49.540;8.576;2023-11-22T09:20:23;5.20;89.60
16827;DHT22;8530;49.540;8.576;2023-11-22T09:22:51;5.30;89.30
16827;DHT22;8530;49.540;8.576;2023-11-22T09:25:19;5.40;89.00
16827;DHT22;8530;49.540;8.576;2023-11-22T09:27:47;5.40;87.80
16827;DHT22;8530;49.540;8.576;2023-11-22T09:30:15;5.30;87.40
16827;DHT22;8530;49.540;8.576;2023-11-22T09:32:59;5.30;87.10
16827;DHT22;8530;49.540;8.576;2023-11-22T09:35:25;5.30;86.80
16827;DHT22;8530;49.540;8.576;2023-11-22T09:37:54;5.20;86.30
16827;DHT22;8530;49.540;8.576;2023-11-22T09:40:22;5.20;85.70
16827;DHT22;8530;49.540;8.576;2023-11-22T09:42:49;5.20;84.90
16827;DHT22;8530;49.540;8.576;2023-11-22T09:45:19;5.20;84.60
16827;DHT22;8530;49.540;8.576;2023-11-22T09:47:46;5.20;84.30
16827;DHT22;8530;49.540;8.576;2023-11-22T09:50:19;5.30;84.20
16827;DHT22;8530;49.540;8.576;2023-11-22T09:52:48;5.40;83.80
16827;DHT22;8530;49.540;8.576;2023-11-22T09:55:16;5.50;83.10
16827;DHT22;8530;49.540;8.576;2023-11-22T09:57:43;5.50;82.30
16827;DHT22;8530;49.540;8.576;2023-11-22T10:00:11;5.50;81.80
16827;DHT22;8530;49.540;8.576;2023-11-22T10:02:39;5.60;81.40
16827;DHT22;8530;49.540;8.576;2023-11-22T10:05:07;5.50;80.60
16827;DHT22;8530;49.540;8.576;2023-11-22T10:07:36;5.50;79.90
16827;DHT22;8530;49.540;8.576;2023-11-22T10:10:04;5.50;79.40
16827;DHT22;8530;49.540;8.576;2023-11-22T10:12:32;5.50;79.20
16827;DHT22;8530;49.540;8.576;2023-11-22T10:15:11;5.50;78.90
16827;DHT22;8530;49.540;8.576;2023-11-22T10:17:38;5.60;78.50
16827;DHT22;8530;49.540;8.576;2023-11-22T10:20:05;5.50;78.20
16827;DHT22;8530;49.540;8.576;2023-11-22T10:22:44;5.60;77.50
16827;DHT22;8530;49.540;8.576;2023-11-22T10:25:13;5.60;77.30
16827;DHT22;8530;49.540;8.576;2023-11-22T10:27:40;5.70;77.40
16827;DHT22;8530;49.540;8.576;2023-11-22T10:30:08;5.70;76.70
16827;DHT22;8530;49.540;8.576;2023-11-22T10:32:37;5.70;76.40
16827;DHT22;8530;49.540;8.576;2023-11-22T10:35:05;5.80;76.30
16827;DHT22;8530;49.540;8.576;2023-11-22T10:37:33;5.90;76.10
16827;DHT22;8530;49.540;8.576;2023-11-22T10:40:01;6.00;75.90
16827;DHT22;8530;49.540;8.576;2023-11-22T10:42:32;6.20;75.70
16827;DHT22;8530;49.540;8.576;2023-11-22T10:45:00;6.30;75.40
16827;DHT22;8530;49.540;8.576;2023-11-22T10:47:29;6.40;74.90
16827;DHT22;8530;49.540;8.576;2023-11-22T10:49:57;6.50;74.10
16827;DHT22;8530;49.540;8.576;2023-11-22T10:52:27;6.50;73.60
16827;DHT22;8530;49.540;8.576;2023-11-22T10:55:02;6.50;73.10
16827;DHT22;8530;49.540;8.576;2023-11-22T10:57:31;6.40;72.20
16827;DHT22;8530;49.540;8.576;2023-11-22T11:00:03;6.50;72.10
16827;DHT22;8530;49.540;8.576;2023-11-22T11:02:36;6.50;71.90
16827;DHT22;8530;49.540;8.576;2023-11-22T11:05:10;6.60;71.50
16827;DHT22;8530;49.540;8.576;2023-11-22T11:07:48;6.60;71.10
16827;DHT22;8530;49.540;8.576;2023-11-22T11:10:18;6.60;70.90
16827;DHT22;8530;49.540;8.576;2023-11-22T11:12:46;6.60;70.70
16827;DHT22;8530;49.540;8.576;2023-11-22T11:15:14;6.60;70.60
16827;DHT22;8530;49.540;8.576;2023-11-22T11:17:43;6.70;70.60
16827;DHT22;8530;49.540;8.576;2023-11-22T11:20:13;6.80;70.60
16827;DHT22;8530;49.540;8.576;2023-11-22T11:22:43;7.00;70.40
16827;DHT22;8530;49.540;8.576;2023-11-22T11:25:16;7.10;70.00
16827;DHT22;8530;49.540;8.576;2023-11-22T11:27:44;7.20;69.50
16827;DHT22;8530;49.540;8.576;2023-11-22T11:30:45;7.30;69.20
16827;DHT22;8530;49.540;8.576;2023-11-22T11:33:12;7.40;68.50
16827;DHT22;8530;49.540;8.576;2023-11-22T11:35:42;7.40;68.00
16827;DHT22;8530;49.540;8.576;2023-11-22T11:38:11;7.30;67.30
16827;DHT22;8530;49.540;8.576;2023-11-22T11:40:41;7.30;67.60
16827;DHT22;8530;49.540;8.576;2023-11-22T11:43:10;7.40;66.80
16827;DHT22;8530;49.540;8.576;2023-11-22T11:45:38;7.30;66.50
16827;DHT22;8530;49.540;8.576;2023-11-22T11:48:05;7.30;66.10
16827;DHT22;8530;49.540;8.576;2023-11-22T11:50:32;7.30;65.50
16827;DHT22;8530;49.540;8.576;2023-11-22T11:52:59;7.20;64.90
16827;DHT22;8530;49.540;8.576;2023-11-22T11:55:26;7.10;64.30
16827;DHT22;8530;49.540;8.576;2023-11-22T11:57:55;7.00;64.10
16827;DHT22;8530;49.540;8.576;2023-11-22T12:00:22;7.00;64.20
16827;DHT22;8530;49.540;8.576;2023-11-22T12:02:49;6.90;63.80
16827;DHT22;8530;49.540;8.576;2023-11-22T12:05:19;6.90;63.90
16827;DHT22;8530;49.540;8.576;2023-11-22T12:07:46;6.90;63.80
16827;DHT22;8530;49.540;8.576;2023-11-22T12:10:13;6.90;63.70
16827;DHT22;8530;49.540;8.576;2023-11-22T12:12:42;7.00;63.70
16827;DHT22;8530;49.540;8.576;2023-11-22T12:15:10;7.10;63.50
16827;DHT22;8530;49.540;8.576;2023-11-22T12:17:39;7.10;63.10
16827;DHT22;8530;49.540;8.576;2023-11-22T12:20:12;7.10;63.00
16827;DHT22;8530;49.540;8.576;2023-11-22T12:22:41;7.10;62.80
16827;DHT22;8530;49.540;8.576;2023-11-22T12:25:09;7.10;62.80
16827;DHT22;8530;49.540;8.576;2023-11-22T12:27:39;7.10;62.50
16827;DHT22;8530;49.540;8.576;2023-11-22T12:30:08;7.10;62.40
16827;DHT22;8530;49.540;8.576;2023-11-22T12:32:38;7.20;62.20
16827;DHT22;8530;49.540;8.576;2023-11-22T12:35:06;7.20;61.90
16827;DHT22;8530;49.540;8.576;2023-11-22T12:37:33;7.20;61.80
16827;DHT22;8530;49.540;8.576;2023-11-22T12:40:09;7.20;61.50
16827;DHT22;8530;49.540;8.576;2023-11-22T12:42:47;7.20;61.10
16827;DHT22;8530;49.540;8.576;2023-11-22T12:45:18;7.10;60.60
16827;DHT22;8530;49.540;8.576;2023-11-22T12:47:47;7.00;60.60
16827;DHT22;8530;49.540;8.576;2023-11-22T12:50:30;6.90;60.30
16827;DHT22;8530;49.540;8.576;2023-11-22T12:52:57;6.90;60.10
16827;DHT22;8530;49.540;8.576;2023-11-22T12:55:23;6.80;59.80
16827;DHT22;8530;49.540;8.576;2023-11-22T12:57:56;6.70;59.90
16827;DHT22;8530;49.540;8.576;2023-11-22T13:00:24;6.80;60.00
16827;DHT22;8530;49.540;8.576;2023-11-22T13:02:52;6.90;60.00
16827;DHT22;8530;49.540;8.576;2023-11-22T13:05:19;6.90;59.70
16827;DHT22;8530;49.540;8.576;2023-11-22T13:07:47;6.80;59.30
16827;DHT22;8530;49.540;8.576;2023-11-22T13:10:14;6.80;59.20
16827;DHT22;8530;49.540;8.576;2023-11-22T13:12:42;6.70;59.10
16827;DHT22;8530;49.540;8.576;2023-11-22T13:15:09;6.60;59.00
16827;DHT22;8530;49.540;8.576;2023-11-22T13:17:37;6.60;58.70
16827;DHT22;8530;49.540;8.576;2023-11-22T13:20:08;6.50;58.80
16827;DHT22;8530;49.540;8.576;2023-11-22T13:22:39;6.60;58.80
16827;DHT22;8530;49.540;8.576;2023-11-22T13:25:07;6.50;58.80
16827;DHT22;8530;49.540;8.576;2023-11-22T13:27:35;6.50;58.80
16827;DHT22;8530;49.540;8.576;2023-11-22T13:30:02;6.60;58.90
16827;DHT22;8530;49.540;8.576;2023-11-22T13:32:30;6.60;58.80
16827;DHT22;8530;49.540;8.576;2023-11-22T13:34:57;6.60;58.70
16827;DHT22;8530;49.540;8.576;2023-11-22T13:37:25;6.60;58.60
16827;DHT22;8530;49.540;8.576;2023-11-22T13:39:53;6.60;58.60
16827;DHT22;8530;49.540;8.576;2023-11-22T13:42:19;6.70;58.60
16827;DHT22;8530;49.540;8.576;2023-11-22T13:44:46;6.70;59.00
16827;DHT22;8530;49.540;8.576;2023-11-22T13:47:14;6.70;58.40
16827;DHT22;8530;49.540;8.576;2023-11-22T13:49:41;6.70;58.30
16827;DHT22;8530;49.540;8.576;2023-11-22T13:52:08;6.80;58.40
16827;DHT22;8530;49.540;8.576;2023-11-22T13:54:36;6.80;58.40
16827;DHT22;8530;49.540;8.576;2023-11-22T13:57:05;6.90;58.50
16827;DHT22;8530;49.540;8.576;2023-11-22T13:59:32;7.00;58.40
16827;DHT22;8530;49.540;8.576;2023-11-22T14:01:59;7.00;58.30
16827;DHT22;8530;49.540;8.576;2023-11-22T14:04:26;7.10;58.30
16827;DHT22;8530;49.540;8.576;2023-11-22T14:06:53;7.10;58.10
16827;DHT22;8530;49.540;8.576;2023-11-22T14:09:19;7.10;57.90
16827;DHT22;8530;49.540;8.576;2023-11-22T14:11:47;7.00;57.70
16827;DHT22;8530;49.540;8.576;2023-11-22T14:14:14;6.90;57.30
16827;DHT22;8530;49.540;8.576;2023-11-22T14:16:42;6.90;57.40
16827;DHT22;8530;49.540;8.576;2023-11-22T14:19:10;6.90;57.40
16827;DHT22;8530;49.540;8.576;2023-11-22T14:21:37;6.80;57.30
16827;DHT22;8530;49.540;8.576;2023-11-22T14:24:05;6.90;57.30
16827;DHT22;8530;49.540;8.576;2023-11-22T14:26:31;6.80;57.20
16827;DHT22;8530;49.540;8.576;2023-11-22T14:29:00;6.80;57.00
16827;DHT22;8530;49.540;8.576;2023-11-22T14:31:27;6.70;56.80
16827;DHT22;8530;49.540;8.576;2023-11-22T14:33:54;6.60;56.70
16827;DHT22;8530;49.540;8.576;2023-11-22T14:36:22;6.60;56.80
16827;DHT22;8530;49.540;8.576;2023-11-22T14:38:49;6.50;56.70
16827;DHT22;8530;49.540;8.576;2023-11-22T14:41:19;6.50;57.20
16827;DHT22;8530;49.540;8.576;2023-11-22T14:43:46;6.40;56.60
16827;DHT22;8530;49.540;8.576;2023-11-22T14:46:14;6.30;56.60
16827;DHT22;8530;49.540;8.576;2023-11-22T14:48:41;6.30;56.60
16827;DHT22;8530;49.540;8.576;2023-11-22T14:51:08;6.20;56.60
16827;DHT22;8530;49.540;8.576;2023-11-22T14:53:35;6.20;56.70
16827;DHT22;8530;49.540;8.576;2023-11-22T14:56:05;6.10;56.60
16827;DHT22;8530;49.540;8.576;2023-11-22T14:58:32;6.00;56.40
16827;DHT22;8530;49.540;8.576;2023-11-22T15:01:00;5.90;56.40
16827;DHT22;8530;49.540;8.576;2023-11-22T15:03:31;5.80;56.40
16827;DHT22;8530;49.540;8.576;2023-11-22T15:05:58;5.70;56.40
16827;DHT22;8530;49.540;8.576;2023-11-22T15:08:25;5.50;56.40
16827;DHT22;8530;49.540;8.576;2023-11-22T15:10:53;5.50;56.50
16827;DHT22;8530;49.540;8.576;2023-11-22T15:13:20;5.30;56.50
16827;DHT22;8530;49.540;8.576;2023-11-22T15:15:47;5.10;56.50
16827;DHT22;8530;49.540;8.576;2023-11-22T15:18:14;5.00;56.60
16827;DHT22;8530;49.540;8.576;2023-11-22T15:20:42;4.90;56.60
16827;DHT22;8530;49.540;8.576;2023-11-22T15:23:09;4.80;56.70
16827;DHT22;8530;49.540;8.576;2023-11-22T15:25:35;4.70;56.80
16827;DHT22;8530;49.540;8.576;2023-11-22T15:28:02;4.50;56.70
16827;DHT22;8530;49.540;8.576;2023-11-22T15:30:30;4.50;56.90
16827;DHT22;8530;49.540;8.576;2023-11-22T15:32:57;4.40;57.00
16827;DHT22;8530;49.540;8.576;2023-11-22T15:35:23;4.30;57.10
16827;DHT22;8530;49.540;8.576;2023-11-22T15:37:52;4.20;57.20
16827;DHT22;8530;49.540;8.576;2023-11-22T15:40:19;4.10;57.30
16827;DHT22;8530;49.540;8.576;2023-11-22T15:42:48;4.10;57.50
16827;DHT22;8530;49.540;8.576;2023-11-22T15:45:15;4.00;57.60
16827;DHT22;8530;49.540;8.576;2023-11-22T15:47:42;3.90;57.70
16827;DHT22;8530;49.540;8.576;2023-11-22T15:50:10;3.90;57.90
16827;DHT22;8530;49.540;8.576;2023-11-22T15:52:37;3.90;58.10
16827;DHT22;8530;49.540;8.576;2023-11-22T15:55:05;3.80;58.20
16827;DHT22;8530;49.540;8.576;2023-11-22T15:57:32;3.80;58.90
16827;DHT22;8530;49.540;8.576;2023-11-22T15:59:59;3.90;58.60
16827;DHT22;8530;49.540;8.576;2023-11-22T16:02:26;3.90;58.80
16827;DHT22;8530;49.540;8.576;2023-11-22T16:04:53;3.90;58.90
16827;DHT22;8530;49.540;8.576;2023-11-22T16:07:19;4.00;59.10